sensor_id;sensor_type;location;lat;lon;timestamp;temperature;humidity
26186;DHT22;20067;48.764;9.176;2022-09-09T00:06:25;17.30;81.30
26186;DHT22;20067;48.764;9.176;2022-09-09T00:09:26;17.40;81.10
26186;DHT22;20067;48.764;9.176;2022-09-09T00:12:01;17.40;80.80
26186;DHT22;20067;48.764;9.176;2022-09-09T00:17:01;17.40;80.30
26186;DHT22;20067;48.764;9.176;2022-09-09T00:20:13;17.40;81.10
26186;DHT22;20067;48.764;9.176;2022-09-09T00:22:45;17.40;82.30
26186;DHT22;20067;48.764;9.176;2022-09-09T00:25:41;17.40;82.30
26186;DHT22;20067;48.764;9.176;2022-09-09T00:28:16;17.40;80.90
26186;DHT22;20067;48.764;9.176;2022-09-09T00:30:43;17.50;80.90
26186;DHT22;20067;48.764;9.176;2022-09-09T00:33:12;17.50;81.10
26186;DHT22;20067;48.764;9.176;2022-09-09T00:35:57;17.50;81.20
26186;DHT22;20067;48.764;9.176;2022-09-09T00:44:31;17.50;82.00
26186;DHT22;20067;48.764;9.176;2022-09-09T00:57:39;17.80;79.60
26186;DHT22;20067;48.764;9.176;2022-09-09T01:03:13;17.70;80.70
26186;DHT22;20067;48.764;9.176;2022-09-09T01:11:25;17.70;80.00
26186;DHT22;20067;48.764;9.176;2022-09-09T01:14:24;17.80;79.10
26186;DHT22;20067;48.764;9.176;2022-09-09T01:16:59;17.80;79.00
26186;DHT22;20067;48.764;9.176;2022-09-09T01:19:49;17.80;80.00
26186;DHT22;20067;48.764;9.176;2022-09-09T01:22:58;17.80;80.10
26186;DHT22;20067;48.764;9.176;2022-09-09T01:25:22;17.80;80.00
26186;DHT22;20067;48.764;9.176;2022-09-09T01:27:53;17.70;80.20
26186;DHT22;20067;48.764;9.176;2022-09-09T01:30:21;17.60;80.00
26186;DHT22;20067;48.764;9.176;2022-09-09T01:32:51;17.50;80.10
26186;DHT22;20067;48.764;9.176;2022-09-09T01:35:43;17.50;80.10
26186;DHT22;20067;48.764;9.176;2022-09-09T01:38:12;17.50;79.80
26186;DHT22;20067;48.764;9.176;2022-09-09T01:40:38;17.50;80.10
26186;DHT22;20067;48.764;9.176;2022-09-09T01:43:04;17.60;80.00
26186;DHT22;20067;48.764;9.176;2022-09-09T01:45:31;17.50;81.00
26186;DHT22;20067;48.764;9.176;2022-09-09T01:47:58;17.50;81.30
26186;DHT22;20067;48.764;9.176;2022-09-09T01:50:24;17.50;80.90
26186;DHT22;20067;48.764;9.176;2022-09-09T01:52:53;17.50;80.80
26186;DHT22;20067;48.764;9.176;2022-09-09T01:55:30;17.50;80.80
26186;DHT22;20067;48.764;9.176;2022-09-09T02:01:10;17.40;80.60
26186;DHT22;20067;48.764;9.176;2022-09-09T02:03:38;17.40;80.60
26186;DHT22;20067;48.764;9.176;2022-09-09T02:08:52;17.40;80.80
26186;DHT22;20067;48.764;9.176;2022-09-09T02:11:22;17.40;80.10
26186;DHT22;20067;48.764;9.176;2022-09-09T02:13:51;17.40;79.70
26186;DHT22;20067;48.764;9.176;2022-09-09T02:21:34;17.50;80.60
26186;DHT22;20067;48.764;9.176;2022-09-09T02:24:05;17.40;81.20
26186;DHT22;20067;48.764;9.176;2022-09-09T02:26:37;17.40;81.60
26186;DHT22;20067;48.764;9.176;2022-09-09T02:29:09;17.40;82.00
26186;DHT22;20067;48.764;9.176;2022-09-09T02:31:37;17.20;82.40
26186;DHT22;20067;48.764;9.176;2022-09-09T02:34:05;17.20;82.70
26186;DHT22;20067;48.764;9.176;2022-09-09T02:36:34;17.20;82.90
26186;DHT22;20067;48.764;9.176;2022-09-09T02:39:01;17.10;82.70
26186;DHT22;20067;48.764;9.176;2022-09-09T02:41:34;17.10;83.20
26186;DHT22;20067;48.764;9.176;2022-09-09T02:44:01;17.00;83.20
26186;DHT22;20067;48.764;9.176;2022-09-09T02:52:08;16.80;83.00
26186;DHT22;20067;48.764;9.176;2022-09-09T02:54:35;16.80;83.40
26186;DHT22;20067;48.764;9.176;2022-09-09T02:57:27;16.80;83.90
26186;DHT22;20067;48.764;9.176;2022-09-09T02:59:53;16.80;84.00
26186;DHT22;20067;48.764;9.176;2022-09-09T03:02:22;16.80;83.00
26186;DHT22;20067;48.764;9.176;2022-09-09T03:04:47;16.80;82.80
26186;DHT22;20067;48.764;9.176;2022-09-09T03:07:17;16.80;82.70
26186;DHT22;20067;48.764;9.176;2022-09-09T03:09:43;16.80;82.40
26186;DHT22;20067;48.764;9.176;2022-09-09T03:12:09;16.90;82.70
26186;DHT22;20067;48.764;9.176;2022-09-09T03:14:36;16.90;82.70
26186;DHT22;20067;48.764;9.176;2022-09-09T03:17:04;17.00;82.30
26186;DHT22;20067;48.764;9.176;2022-09-09T03:19:30;17.00;82.30
26186;DHT22;20067;48.764;9.176;2022-09-09T03:21:57;17.00;82.10
26186;DHT22;20067;48.764;9.176;2022-09-09T03:24:23;17.00;82.00
26186;DHT22;20067;48.764;9.176;2022-09-09T03:26:49;17.00;82.00
26186;DHT22;20067;48.764;9.176;2022-09-09T03:29:16;17.10;82.30
26186;DHT22;20067;48.764;9.176;2022-09-09T03:31:43;17.10;82.40
26186;DHT22;20067;48.764;9.176;2022-09-09T03:34:09;17.00;83.00
26186;DHT22;20067;48.764;9.176;2022-09-09T03:36:35;17.00;83.50
26186;DHT22;20067;48.764;9.176;2022-09-09T03:39:01;16.90;83.40
26186;DHT22;20067;48.764;9.176;2022-09-09T03:41:28;17.00;82.90
26186;DHT22;20067;48.764;9.176;2022-09-09T03:43:55;17.00;82.40
26186;DHT22;20067;48.764;9.176;2022-09-09T03:46:22;17.10;81.80
26186;DHT22;20067;48.764;9.176;2022-09-09T03:48:49;17.10;81.20
26186;DHT22;20067;48.764;9.176;2022-09-09T03:51:14;17.20;81.50
26186;DHT22;20067;48.764;9.176;2022-09-09T03:53:41;17.20;81.50
26186;DHT22;20067;48.764;9.176;2022-09-09T03:56:07;17.30;81.50
26186;DHT22;20067;48.764;9.176;2022-09-09T03:58:33;17.30;81.10
26186;DHT22;20067;48.764;9.176;2022-09-09T04:01:11;17.30;81.80
26186;DHT22;20067;48.764;9.176;2022-09-09T04:03:40;17.30;81.30
26186;DHT22;20067;48.764;9.176;2022-09-09T04:06:07;17.30;81.10
26186;DHT22;20067;48.764;9.176;2022-09-09T04:08:35;17.20;81.80
26186;DHT22;20067;48.764;9.176;2022-09-09T04:11:02;17.20;81.50
26186;DHT22;20067;48.764;9.176;2022-09-09T04:13:35;17.20;81.50
26186;DHT22;20067;48.764;9.176;2022-09-09T04:16:03;17.20;81.50
26186;DHT22;20067;48.764;9.176;2022-09-09T04:18:29;17.10;81.80
26186;DHT22;20067;48.764;9.176;2022-09-09T04:20:55;17.00;82.30
26186;DHT22;20067;48.764;9.176;2022-09-09T04:23:25;17.00;82.50
26186;DHT22;20067;48.764;9.176;2022-09-09T04:25:53;16.90;82.70
26186;DHT22;20067;48.764;9.176;2022-09-09T04:28:22;16.80;83.00
26186;DHT22;20067;48.764;9.176;2022-09-09T04:30:48;16.80;83.00
26186;DHT22;20067;48.764;9.176;2022-09-09T04:33:14;16.90;83.20
26186;DHT22;20067;48.764;9.176;2022-09-09T04:35:45;16.90;83.00
26186;DHT22;20067;48.764;9.176;2022-09-09T04:38:11;16.80;83.20
26186;DHT22;20067;48.764;9.176;2022-09-09T04:40:37;16.80;83.30
26186;DHT22;20067;48.764;9.176;2022-09-09T04:43:08;16.80;83.30
26186;DHT22;20067;48.764;9.176;2022-09-09T04:45:35;16.80;83.00
26186;DHT22;20067;48.764;9.176;2022-09-09T04:48:01;16.80;83.00
26186;DHT22;20067;48.764;9.176;2022-09-09T04:50:27;16.80;83.20
26186;DHT22;20067;48.764;9.176;2022-09-09T04:52:53;16.80;83.40
26186;DHT22;20067;48.764;9.176;2022-09-09T04:55:19;16.80;83.30
26186;DHT22;20067;48.764;9.176;2022-09-09T04:57:45;16.80;83.60
26186;DHT22;20067;48.764;9.176;2022-09-09T05:00:12;16.80;83.70
26186;DHT22;20067;48.764;9.176;2022-09-09T05:02:39;16.80;83.60
26186;DHT22;20067;48.764;9.176;2022-09-09T05:05:05;16.70;83.90
26186;DHT22;20067;48.764;9.176;2022-09-09T05:07:31;16.70;84.10
26186;DHT22;20067;48.764;9.176;2022-09-09T05:09:57;16.80;84.00
26186;DHT22;20067;48.764;9.176;2022-09-09T05:12:23;16.80;83.90
26186;DHT22;20067;48.764;9.176;2022-09-09T05:14:52;16.80;84.00
26186;DHT22;20067;48.764;9.176;2022-09-09T05:17:18;16.80;84.10
26186;DHT22;20067;48.764;9.176;2022-09-09T05:19:44;16.80;83.80
26186;DHT22;20067;48.764;9.176;2022-09-09T05:22:10;16.90;83.70
26186;DHT22;20067;48.764;9.176;2022-09-09T05:24:37;16.90;83.40
26186;DHT22;20067;48.764;9.176;2022-09-09T05:27:03;16.90;83.50
26186;DHT22;20067;48.764;9.176;2022-09-09T05:29:31;16.90;83.60
26186;DHT22;20067;48.764;9.176;2022-09-09T05:31:59;17.00;83.40
26186;DHT22;20067;48.764;9.176;2022-09-09T05:34:24;17.00;83.80
26186;DHT22;20067;48.764;9.176;2022-09-09T05:36:50;17.00;83.30
26186;DHT22;20067;48.764;9.176;2022-09-09T05:39:18;17.10;83.90
26186;DHT22;20067;48.764;9.176;2022-09-09T05:41:44;17.00;84.20
26186;DHT22;20067;48.764;9.176;2022-09-09T05:44:09;17.00;84.20
26186;DHT22;20067;48.764;9.176;2022-09-09T05:46:35;17.10;84.10
26186;DHT22;20067;48.764;9.176;2022-09-09T05:49:02;17.20;84.00
26186;DHT22;20067;48.764;9.176;2022-09-09T05:51:28;17.30;83.80
26186;DHT22;20067;48.764;9.176;2022-09-09T05:53:55;17.30;83.20
26186;DHT22;20067;48.764;9.176;2022-09-09T05:56:25;17.40;82.90
26186;DHT22;20067;48.764;9.176;2022-09-09T05:58:52;17.40;82.50
26186;DHT22;20067;48.764;9.176;2022-09-09T06:03:50;17.30;82.90
26186;DHT22;20067;48.764;9.176;2022-09-09T06:06:21;17.40;82.70
26186;DHT22;20067;48.764;9.176;2022-09-09T06:08:49;17.30;83.00
26186;DHT22;20067;48.764;9.176;2022-09-09T06:11:21;17.20;83.40
26186;DHT22;20067;48.764;9.176;2022-09-09T06:13:48;17.30;83.40
26186;DHT22;20067;48.764;9.176;2022-09-09T06:16:18;17.30;83.50
26186;DHT22;20067;48.764;9.176;2022-09-09T06:18:44;17.30;83.60
26186;DHT22;20067;48.764;9.176;2022-09-09T06:21:39;17.40;83.50
26186;DHT22;20067;48.764;9.176;2022-09-09T06:24:06;17.50;83.30
26186;DHT22;20067;48.764;9.176;2022-09-09T06:26:34;17.40;83.40
26186;DHT22;20067;48.764;9.176;2022-09-09T06:29:02;17.30;84.00
26186;DHT22;20067;48.764;9.176;2022-09-09T06:31:30;17.20;84.50
26186;DHT22;20067;48.764;9.176;2022-09-09T06:33:58;17.20;84.70
26186;DHT22;20067;48.764;9.176;2022-09-09T06:36:26;17.20;84.90
26186;DHT22;20067;48.764;9.176;2022-09-09T06:38:52;17.20;84.80
26186;DHT22;20067;48.764;9.176;2022-09-09T06:41:19;17.30;84.80
26186;DHT22;20067;48.764;9.176;2022-09-09T06:43:46;17.30;84.70
26186;DHT22;20067;48.764;9.176;2022-09-09T06:46:20;17.40;84.40
26186;DHT22;20067;48.764;9.176;2022-09-09T06:48:47;17.40;84.60
26186;DHT22;20067;48.764;9.176;2022-09-09T06:51:20;17.50;84.30
26186;DHT22;20067;48.764;9.176;2022-09-09T06:53:54;17.50;84.20
26186;DHT22;20067;48.764;9.176;2022-09-09T06:56:23;17.60;84.30
26186;DHT22;20067;48.764;9.176;2022-09-09T06:58:51;17.60;84.10
26186;DHT22;20067;48.764;9.176;2022-09-09T07:01:19;17.80;83.90
26186;DHT22;20067;48.764;9.176;2022-09-09T07:03:47;17.90;83.70
26186;DHT22;20067;48.764;9.176;2022-09-09T07:06:22;18.00;83.60
26186;DHT22;20067;48.764;9.176;2022-09-09T07:08:56;18.20;82.80
26186;DHT22;20067;48.764;9.176;2022-09-09T07:11:25;18.30;82.50
26186;DHT22;20067;48.764;9.176;2022-09-09T07:13:52;18.30;82.50
26186;DHT22;20067;48.764;9.176;2022-09-09T07:16:21;18.40;82.30
26186;DHT22;20067;48.764;9.176;2022-09-09T07:18:48;18.50;81.70
26186;DHT22;20067;48.764;9.176;2022-09-09T07:21:16;18.60;81.50
26186;DHT22;20067;48.764;9.176;2022-09-09T07:23:41;18.60;81.10
26186;DHT22;20067;48.764;9.176;2022-09-09T07:26:18;18.70;81.30
26186;DHT22;20067;48.764;9.176;2022-09-09T07:28:48;18.90;80.30
26186;DHT22;20067;48.764;9.176;2022-09-09T07:33:43;19.10;79.80
26186;DHT22;20067;48.764;9.176;2022-09-09T07:36:20;19.30;79.80
26186;DHT22;20067;48.764;9.176;2022-09-09T07:38:53;19.30;79.30
26186;DHT22;20067;48.764;9.176;2022-09-09T07:41:38;19.20;79.50
26186;DHT22;20067;48.764;9.176;2022-09-09T07:44:13;19.20;80.00
26186;DHT22;20067;48.764;9.176;2022-09-09T07:46:39;19.80;78.20
26186;DHT22;20067;48.764;9.176;2022-09-09T07:49:09;20.50;76.80
26186;DHT22;20067;48.764;9.176;2022-09-09T07:51:46;21.10;75.40
26186;DHT22;20067;48.764;9.176;2022-09-09T07:54:14;21.80;73.30
26186;DHT22;20067;48.764;9.176;2022-09-09T07:56:41;22.40;70.90
26186;DHT22;20067;48.764;9.176;2022-09-09T07:59:08;22.40;71.70
26186;DHT22;20067;48.764;9.176;2022-09-09T08:01:41;23.00;70.00
26186;DHT22;20067;48.764;9.176;2022-09-09T08:04:13;23.80;69.10
26186;DHT22;20067;48.764;9.176;2022-09-09T08:06:51;25.00;66.50
26186;DHT22;20067;48.764;9.176;2022-09-09T08:09:18;25.20;64.40
26186;DHT22;20067;48.764;9.176;2022-09-09T08:11:44;25.60;63.60
26186;DHT22;20067;48.764;9.176;2022-09-09T08:14:11;25.70;62.60
26186;DHT22;20067;48.764;9.176;2022-09-09T08:16:41;25.30;62.80
26186;DHT22;20067;48.764;9.176;2022-09-09T08:19:07;25.40;62.90
26186;DHT22;20067;48.764;9.176;2022-09-09T08:21:34;25.50;64.20
26186;DHT22;20067;48.764;9.176;2022-09-09T08:24:03;26.30;62.90
26186;DHT22;20067;48.764;9.176;2022-09-09T08:26:35;27.20;59.30
26186;DHT22;20067;48.764;9.176;2022-09-09T08:29:04;27.80;59.20
26186;DHT22;20067;48.764;9.176;2022-09-09T08:31:33;28.70;57.40
26186;DHT22;20067;48.764;9.176;2022-09-09T08:34:00;28.90;56.40
26186;DHT22;20067;48.764;9.176;2022-09-09T08:36:29;27.80;59.10
26186;DHT22;20067;48.764;9.176;2022-09-09T08:38:57;28.40;57.50
26186;DHT22;20067;48.764;9.176;2022-09-09T08:50:45;28.70;57.80
26186;DHT22;20067;48.764;9.176;2022-09-09T08:53:22;28.20;57.80
26186;DHT22;20067;48.764;9.176;2022-09-09T08:58:31;27.90;59.10
26186;DHT22;20067;48.764;9.176;2022-09-09T09:03:43;25.30;60.50
26186;DHT22;20067;48.764;9.176;2022-09-09T09:06:31;25.30;61.60
26186;DHT22;20067;48.764;9.176;2022-09-09T09:12:00;24.60;60.60
26186;DHT22;20067;48.764;9.176;2022-09-09T09:14:33;23.60;63.30
26186;DHT22;20067;48.764;9.176;2022-09-09T09:17:20;23.30;64.40
26186;DHT22;20067;48.764;9.176;2022-09-09T09:19:48;23.20;65.00
26186;DHT22;20067;48.764;9.176;2022-09-09T09:22:31;22.90;65.50
26186;DHT22;20067;48.764;9.176;2022-09-09T09:25:21;22.30;67.80
26186;DHT22;20067;48.764;9.176;2022-09-09T09:31:06;21.20;72.70
26186;DHT22;20067;48.764;9.176;2022-09-09T09:33:43;20.70;73.60
26186;DHT22;20067;48.764;9.176;2022-09-09T09:36:12;20.20;77.40
26186;DHT22;20067;48.764;9.176;2022-09-09T09:38:52;19.30;80.40
26186;DHT22;20067;48.764;9.176;2022-09-09T09:41:29;19.00;80.10
26186;DHT22;20067;48.764;9.176;2022-09-09T09:43:55;19.70;78.70
26186;DHT22;20067;48.764;9.176;2022-09-09T09:46:23;21.00;73.70
26186;DHT22;20067;48.764;9.176;2022-09-09T09:49:05;21.90;71.00
26186;DHT22;20067;48.764;9.176;2022-09-09T09:51:34;22.60;69.00
26186;DHT22;20067;48.764;9.176;2022-09-09T09:54:27;23.20;70.50
26186;DHT22;20067;48.764;9.176;2022-09-09T09:56:54;24.10;68.70
26186;DHT22;20067;48.764;9.176;2022-09-09T10:02:05;25.10;64.20
26186;DHT22;20067;48.764;9.176;2022-09-09T10:04:31;25.50;64.10
26186;DHT22;20067;48.764;9.176;2022-09-09T10:06:58;25.80;63.10
26186;DHT22;20067;48.764;9.176;2022-09-09T10:09:35;26.00;63.30
26186;DHT22;20067;48.764;9.176;2022-09-09T10:12:17;25.90;62.40
26186;DHT22;20067;48.764;9.176;2022-09-09T10:14:51;25.70;62.40
26186;DHT22;20067;48.764;9.176;2022-09-09T10:17:29;26.00;62.60
26186;DHT22;20067;48.764;9.176;2022-09-09T10:26:06;26.70;61.10
26186;DHT22;20067;48.764;9.176;2022-09-09T10:28:55;26.80;61.40
26186;DHT22;20067;48.764;9.176;2022-09-09T10:36:47;25.70;63.30
26186;DHT22;20067;48.764;9.176;2022-09-09T10:42:14;25.30;64.60
26186;DHT22;20067;48.764;9.176;2022-09-09T10:44:58;24.30;65.80
26186;DHT22;20067;48.764;9.176;2022-09-09T10:55:42;22.40;72.50
26186;DHT22;20067;48.764;9.176;2022-09-09T10:58:14;22.60;71.80
26186;DHT22;20067;48.764;9.176;2022-09-09T11:00:51;22.70;72.00
26186;DHT22;20067;48.764;9.176;2022-09-09T11:03:28;23.90;70.50
26186;DHT22;20067;48.764;9.176;2022-09-09T11:06:00;25.40;66.50
26186;DHT22;20067;48.764;9.176;2022-09-09T11:08:29;26.20;62.60
26186;DHT22;20067;48.764;9.176;2022-09-09T11:16:59;23.00;68.60
26186;DHT22;20067;48.764;9.176;2022-09-09T11:19:39;23.40;67.60
26186;DHT22;20067;48.764;9.176;2022-09-09T11:22:30;24.00;66.20
26186;DHT22;20067;48.764;9.176;2022-09-09T11:25:05;23.70;63.00
26186;DHT22;20067;48.764;9.176;2022-09-09T11:33:08;22.40;63.20
26186;DHT22;20067;48.764;9.176;2022-09-09T11:38:46;22.20;64.20
26186;DHT22;20067;48.764;9.176;2022-09-09T11:41:13;22.00;64.70
26186;DHT22;20067;48.764;9.176;2022-09-09T11:46:10;21.90;66.30
26186;DHT22;20067;48.764;9.176;2022-09-09T11:48:39;21.70;66.50
26186;DHT22;20067;48.764;9.176;2022-09-09T11:51:37;21.60;66.00
26186;DHT22;20067;48.764;9.176;2022-09-09T11:56:55;21.60;67.20
26186;DHT22;20067;48.764;9.176;2022-09-09T11:59:27;21.30;67.40
26186;DHT22;20067;48.764;9.176;2022-09-09T12:02:28;21.50;67.60
26186;DHT22;20067;48.764;9.176;2022-09-09T12:05:22;22.10;65.30
26186;DHT22;20067;48.764;9.176;2022-09-09T12:07:56;23.00;63.60
26186;DHT22;20067;48.764;9.176;2022-09-09T12:10:29;24.30;60.80
26186;DHT22;20067;48.764;9.176;2022-09-09T12:12:55;24.30;59.70
26186;DHT22;20067;48.764;9.176;2022-09-09T12:15:26;24.10;60.30
26186;DHT22;20067;48.764;9.176;2022-09-09T12:17:58;24.20;61.30
26186;DHT22;20067;48.764;9.176;2022-09-09T12:20:34;24.00;61.00
26186;DHT22;20067;48.764;9.176;2022-09-09T12:36:55;28.00;50.30
26186;DHT22;20067;48.764;9.176;2022-09-09T12:39:32;27.20;51.70
26186;DHT22;20067;48.764;9.176;2022-09-09T12:41:59;26.60;52.60
26186;DHT22;20067;48.764;9.176;2022-09-09T12:44:26;26.20;53.40
26186;DHT22;20067;48.764;9.176;2022-09-09T12:46:55;25.80;53.80
26186;DHT22;20067;48.764;9.176;2022-09-09T12:49:43;24.10;56.90
26186;DHT22;20067;48.764;9.176;2022-09-09T12:52:34;23.30;59.60
26186;DHT22;20067;48.764;9.176;2022-09-09T12:55:03;23.10;60.30
26186;DHT22;20067;48.764;9.176;2022-09-09T12:57:34;22.70;62.10
26186;DHT22;20067;48.764;9.176;2022-09-09T13:00:19;22.50;63.70
26186;DHT22;20067;48.764;9.176;2022-09-09T13:03:17;22.30;63.70
26186;DHT22;20067;48.764;9.176;2022-09-09T13:05:43;23.80;62.40
26186;DHT22;20067;48.764;9.176;2022-09-09T13:08:11;24.50;59.10
26186;DHT22;20067;48.764;9.176;2022-09-09T13:10:57;23.70;60.20
26186;DHT22;20067;48.764;9.176;2022-09-09T13:13:34;23.00;61.80
26186;DHT22;20067;48.764;9.176;2022-09-09T13:16:01;23.40;61.60
26186;DHT22;20067;48.764;9.176;2022-09-09T13:18:31;23.10;60.80
26186;DHT22;20067;48.764;9.176;2022-09-09T13:20:58;22.50;62.40
26186;DHT22;20067;48.764;9.176;2022-09-09T13:23:28;23.00;61.60
26186;DHT22;20067;48.764;9.176;2022-09-09T13:26:00;23.70;60.90
26186;DHT22;20067;48.764;9.176;2022-09-09T13:28:29;24.40;59.60
26186;DHT22;20067;48.764;9.176;2022-09-09T13:30:57;24.90;58.30
26186;DHT22;20067;48.764;9.176;2022-09-09T13:33:36;24.20;58.60
26186;DHT22;20067;48.764;9.176;2022-09-09T13:36:09;24.20;58.40
26186;DHT22;20067;48.764;9.176;2022-09-09T13:41:35;25.60;55.30
26186;DHT22;20067;48.764;9.176;2022-09-09T13:44:02;25.20;54.90
26186;DHT22;20067;48.764;9.176;2022-09-09T13:46:36;23.60;57.70
26186;DHT22;20067;48.764;9.176;2022-09-09T13:49:19;23.40;58.10
26186;DHT22;20067;48.764;9.176;2022-09-09T13:51:48;23.70;58.50
26186;DHT22;20067;48.764;9.176;2022-09-09T13:54:17;23.80;58.10
26186;DHT22;20067;48.764;9.176;2022-09-09T13:56:44;23.10;59.50
26186;DHT22;20067;48.764;9.176;2022-09-09T13:59:12;23.20;60.10
26186;DHT22;20067;48.764;9.176;2022-09-09T14:01:38;23.70;59.90
26186;DHT22;20067;48.764;9.176;2022-09-09T14:04:04;24.30;58.00
26186;DHT22;20067;48.764;9.176;2022-09-09T14:06:31;24.60;57.70
26186;DHT22;20067;48.764;9.176;2022-09-09T14:08:57;25.00;57.40
26186;DHT22;20067;48.764;9.176;2022-09-09T14:11:24;25.10;55.50
26186;DHT22;20067;48.764;9.176;2022-09-09T14:13:49;25.40;56.00
26186;DHT22;20067;48.764;9.176;2022-09-09T14:16:18;25.40;55.20
26186;DHT22;20067;48.764;9.176;2022-09-09T14:18:45;26.00;53.60
26186;DHT22;20067;48.764;9.176;2022-09-09T14:21:11;26.00;54.10
26186;DHT22;20067;48.764;9.176;2022-09-09T14:23:38;26.60;53.70
26186;DHT22;20067;48.764;9.176;2022-09-09T14:26:07;27.70;51.10
26186;DHT22;20067;48.764;9.176;2022-09-09T14:28:34;26.60;51.80
26186;DHT22;20067;48.764;9.176;2022-09-09T14:31:01;26.40;52.80
26186;DHT22;20067;48.764;9.176;2022-09-09T14:33:28;25.00;54.60
26186;DHT22;20067;48.764;9.176;2022-09-09T14:36:01;24.10;55.80
26186;DHT22;20067;48.764;9.176;2022-09-09T14:38:32;25.00;55.20
26186;DHT22;20067;48.764;9.176;2022-09-09T14:40:59;25.50;54.00
26186;DHT22;20067;48.764;9.176;2022-09-09T14:43:25;25.60;53.30
26186;DHT22;20067;48.764;9.176;2022-09-09T14:45:52;24.90;54.60
26186;DHT22;20067;48.764;9.176;2022-09-09T14:48:18;24.70;54.80
26186;DHT22;20067;48.764;9.176;2022-09-09T14:50:44;25.10;54.00
26186;DHT22;20067;48.764;9.176;2022-09-09T14:53:10;24.60;54.60
26186;DHT22;20067;48.764;9.176;2022-09-09T14:55:36;25.00;54.70
26186;DHT22;20067;48.764;9.176;2022-09-09T14:58:02;24.30;54.80
26186;DHT22;20067;48.764;9.176;2022-09-09T15:00:28;24.20;56.10
26186;DHT22;20067;48.764;9.176;2022-09-09T15:02:54;25.00;54.50
26186;DHT22;20067;48.764;9.176;2022-09-09T15:05:20;26.00;52.90
26186;DHT22;20067;48.764;9.176;2022-09-09T15:07:46;27.20;50.40
26186;DHT22;20067;48.764;9.176;2022-09-09T15:10:14;27.10;49.80
26186;DHT22;20067;48.764;9.176;2022-09-09T15:12:40;26.80;50.50
26186;DHT22;20067;48.764;9.176;2022-09-09T15:15:07;26.30;51.20
26186;DHT22;20067;48.764;9.176;2022-09-09T15:17:34;25.60;51.80
26186;DHT22;20067;48.764;9.176;2022-09-09T15:19:59;25.20;53.00
26186;DHT22;20067;48.764;9.176;2022-09-09T15:22:25;24.80;53.80
26186;DHT22;20067;48.764;9.176;2022-09-09T15:24:50;24.60;54.50
26186;DHT22;20067;48.764;9.176;2022-09-09T15:27:16;24.50;55.20
26186;DHT22;20067;48.764;9.176;2022-09-09T15:29:42;24.30;55.30
26186;DHT22;20067;48.764;9.176;2022-09-09T15:32:08;24.30;55.60
26186;DHT22;20067;48.764;9.176;2022-09-09T15:34:34;24.20;55.70
26186;DHT22;20067;48.764;9.176;2022-09-09T15:37:00;23.90;56.10
26186;DHT22;20067;48.764;9.176;2022-09-09T15:39:25;23.30;56.90
26186;DHT22;20067;48.764;9.176;2022-09-09T15:41:51;23.00;58.00
26186;DHT22;20067;48.764;9.176;2022-09-09T15:44:17;22.80;58.20
26186;DHT22;20067;48.764;9.176;2022-09-09T15:46:51;22.70;58.80
26186;DHT22;20067;48.764;9.176;2022-09-09T15:49:26;22.60;58.90
26186;DHT22;20067;48.764;9.176;2022-09-09T15:54:20;22.50;59.00
26186;DHT22;20067;48.764;9.176;2022-09-09T15:56:56;22.40;59.10
26186;DHT22;20067;48.764;9.176;2022-09-09T15:59:23;22.30;59.20
26186;DHT22;20067;48.764;9.176;2022-09-09T16:01:50;22.10;59.00
26186;DHT22;20067;48.764;9.176;2022-09-09T16:04:20;22.10;59.00
26186;DHT22;20067;48.764;9.176;2022-09-09T16:06:53;22.00;59.40
26186;DHT22;20067;48.764;9.176;2022-09-09T16:09:20;22.00;59.20
26186;DHT22;20067;48.764;9.176;2022-09-09T16:11:48;22.00;59.50
26186;DHT22;20067;48.764;9.176;2022-09-09T16:14:15;21.90;59.10
26186;DHT22;20067;48.764;9.176;2022-09-09T16:16:41;21.90;59.40
26186;DHT22;20067;48.764;9.176;2022-09-09T16:19:10;21.90;59.70
26186;DHT22;20067;48.764;9.176;2022-09-09T16:21:43;21.90;59.80
26186;DHT22;20067;48.764;9.176;2022-09-09T16:24:12;21.90;59.70
26186;DHT22;20067;48.764;9.176;2022-09-09T16:26:40;21.70;59.90
26186;DHT22;20067;48.764;9.176;2022-09-09T16:29:06;21.70;60.50
26186;DHT22;20067;48.764;9.176;2022-09-09T16:31:32;21.70;60.70
26186;DHT22;20067;48.764;9.176;2022-09-09T16:33:58;21.80;60.90
26186;DHT22;20067;48.764;9.176;2022-09-09T16:36:27;21.80;61.20
26186;DHT22;20067;48.764;9.176;2022-09-09T16:38:59;21.80;61.10
26186;DHT22;20067;48.764;9.176;2022-09-09T16:41:27;21.80;61.50
26186;DHT22;20067;48.764;9.176;2022-09-09T16:43:54;21.70;62.60
26186;DHT22;20067;48.764;9.176;2022-09-09T16:46:21;21.60;63.30
26186;DHT22;20067;48.764;9.176;2022-09-09T16:48:48;21.40;64.00
26186;DHT22;20067;48.764;9.176;2022-09-09T16:51:18;21.30;64.50
26186;DHT22;20067;48.764;9.176;2022-09-09T16:53:44;21.20;64.60
26186;DHT22;20067;48.764;9.176;2022-09-09T16:56:13;21.20;63.90
26186;DHT22;20067;48.764;9.176;2022-09-09T16:58:40;21.10;63.60
26186;DHT22;20067;48.764;9.176;2022-09-09T17:01:06;20.80;64.10
26186;DHT22;20067;48.764;9.176;2022-09-09T17:03:32;20.50;65.10
26186;DHT22;20067;48.764;9.176;2022-09-09T17:05:58;20.30;65.50
26186;DHT22;20067;48.764;9.176;2022-09-09T17:08:30;20.20;65.20
26186;DHT22;20067;48.764;9.176;2022-09-09T17:10:57;19.90;66.00
26186;DHT22;20067;48.764;9.176;2022-09-09T17:13:23;19.80;66.70
26186;DHT22;20067;48.764;9.176;2022-09-09T17:15:50;19.80;67.10
26186;DHT22;20067;48.764;9.176;2022-09-09T17:18:16;19.80;67.40
26186;DHT22;20067;48.764;9.176;2022-09-09T17:20:42;19.80;67.70
26186;DHT22;20067;48.764;9.176;2022-09-09T17:23:10;19.80;67.70
26186;DHT22;20067;48.764;9.176;2022-09-09T17:25:37;19.80;67.90
26186;DHT22;20067;48.764;9.176;2022-09-09T17:28:03;19.80;68.40
26186;DHT22;20067;48.764;9.176;2022-09-09T17:30:33;19.70;69.20
26186;DHT22;20067;48.764;9.176;2022-09-09T17:33:00;19.70;69.30
26186;DHT22;20067;48.764;9.176;2022-09-09T17:35:25;19.80;69.10
26186;DHT22;20067;48.764;9.176;2022-09-09T17:37:53;19.80;69.70
26186;DHT22;20067;48.764;9.176;2022-09-09T17:40:20;19.80;69.40
26186;DHT22;20067;48.764;9.176;2022-09-09T17:42:46;19.80;69.20
26186;DHT22;20067;48.764;9.176;2022-09-09T17:45:12;19.70;69.60
26186;DHT22;20067;48.764;9.176;2022-09-09T17:47:38;19.60;69.80
26186;DHT22;20067;48.764;9.176;2022-09-09T17:50:05;19.50;70.70
26186;DHT22;20067;48.764;9.176;2022-09-09T17:52:32;19.50;70.50
26186;DHT22;20067;48.764;9.176;2022-09-09T17:54:58;19.50;70.80
26186;DHT22;20067;48.764;9.176;2022-09-09T17:57:23;19.40;71.10
26186;DHT22;20067;48.764;9.176;2022-09-09T17:59:50;19.30;71.70
26186;DHT22;20067;48.764;9.176;2022-09-09T18:02:16;19.20;72.00
26186;DHT22;20067;48.764;9.176;2022-09-09T18:04:41;19.10;72.70
26186;DHT22;20067;48.764;9.176;2022-09-09T18:07:07;19.00;73.20
26186;DHT22;20067;48.764;9.176;2022-09-09T18:09:33;18.90;73.70